sensor_id;sensor_type;location;lat;lon;timestamp;P1;durP1;ratioP1;P2;durP2;ratioP2
65463;SDS011;52063;45.110;9.870;2023-10-13T00:01:33;9.87;;;7.37;;
65463;SDS011;52063;45.110;9.870;2023-10-13T00:03:59;9.02;;;6.50;;
65463;SDS011;52063;45.110;9.870;2023-10-13T00:06:30;9.70;;;6.70;;
65463;SDS011;52063;45.110;9.870;2023-10-13T00:08:56;10.03;;;6.77;;
65463;SDS011;52063;45.110;9.870;2023-10-13T00:11:21;9.88;;;6.43;;
65463;SDS011;52063;45.110;9.870;2023-10-13T00:13:47;8.03;;;6.40;;
65463;SDS011;52063;45.110;9.870;2023-10-13T00:16:19;9.90;;;7.20;;
65463;SDS011;52063;45.110;9.870;2023-10-13T00:18:52;11.30;;;7.10;;
65463;SDS011;52063;45.110;9.870;2023-10-13T00:21:23;11.67;;;6.50;;
65463;SDS011;52063;45.110;9.870;2023-10-13T00:23:58;12.82;;;6.45;;
65463;SDS011;52063;45.110;9.870;2023-10-13T00:26:26;11.45;;;7.50;;
65463;SDS011;52063;45.110;9.870;2023-10-13T00:28:57;10.48;;;6.90;;
65463;SDS011;52063;45.110;9.870;2023-10-13T00:31:36;8.90;;;6.80;;
65463;SDS011;52063;45.110;9.870;2023-10-13T00:34:05;10.27;;;6.40;;
65463;SDS011;52063;45.110;9.870;2023-10-13T00:36:43;8.27;;;6.68;;
65463;SDS011;52063;45.110;9.870;2023-10-13T00:39:14;8.18;;;6.38;;
65463;SDS011;52063;45.110;9.870;2023-10-13T00:41:44;9.55;;;7.00;;
65463;SDS011;52063;45.110;9.870;2023-10-13T00:44:23;9.43;;;6.30;;
65463;SDS011;52063;45.110;9.870;2023-10-13T00:47:07;9.23;;;6.30;;
65463;SDS011;52063;45.110;9.870;2023-10-13T00:49:35;7.63;;;6.05;;
65463;SDS011;52063;45.110;9.870;2023-10-13T00:52:08;8.90;;;6.10;;
65463;SDS011;52063;45.110;9.870;2023-10-13T00:54:36;13.75;;;6.15;;
65463;SDS011;52063;45.110;9.870;2023-10-13T00:57:02;9.98;;;6.45;;
65463;SDS011;52063;45.110;9.870;2023-10-13T00:59:51;8.80;;;6.30;;
65463;SDS011;52063;45.110;9.870;2023-10-13T01:02:19;9.10;;;6.63;;
65463;SDS011;52063;45.110;9.870;2023-10-13T01:05:11;9.93;;;7.00;;
65463;SDS011;52063;45.110;9.870;2023-10-13T01:07:44;8.48;;;6.68;;
65463;SDS011;52063;45.110;9.870;2023-10-13T01:10:16;8.27;;;7.10;;
65463;SDS011;52063;45.110;9.870;2023-10-13T01:12:41;8.43;;;5.97;;
65463;SDS011;52063;45.110;9.870;2023-10-13T01:15:11;10.00;;;6.93;;
65463;SDS011;52063;45.110;9.870;2023-10-13T01:17:41;10.18;;;6.80;;
65463;SDS011;52063;45.110;9.870;2023-10-13T01:20:10;9.23;;;6.60;;
65463;SDS011;52063;45.110;9.870;2023-10-13T01:22:38;10.32;;;6.88;;
65463;SDS011;52063;45.110;9.870;2023-10-13T01:25:03;8.50;;;6.90;;
65463;SDS011;52063;45.110;9.870;2023-10-13T01:27:35;9.63;;;6.63;;
65463;SDS011;52063;45.110;9.870;2023-10-13T01:30:03;10.65;;;6.50;;
65463;SDS011;52063;45.110;9.870;2023-10-13T01:32:35;8.88;;;6.45;;
65463;SDS011;52063;45.110;9.870;2023-10-13T01:35:08;10.20;;;6.60;;
65463;SDS011;52063;45.110;9.870;2023-10-13T01:37:35;11.30;;;6.70;;
65463;SDS011;52063;45.110;9.870;2023-10-13T01:40:00;9.30;;;6.50;;
65463;SDS011;52063;45.110;9.870;2023-10-13T01:42:25;7.60;;;6.87;;
65463;SDS011;52063;45.110;9.870;2023-10-13T01:44:55;9.70;;;6.63;;
65463;SDS011;52063;45.110;9.870;2023-10-13T01:47:23;10.07;;;6.77;;
65463;SDS011;52063;45.110;9.870;2023-10-13T01:49:49;10.10;;;6.93;;
65463;SDS011;52063;45.110;9.870;2023-10-13T01:52:15;11.73;;;6.90;;
65463;SDS011;52063;45.110;9.870;2023-10-13T01:54:41;7.33;;;6.47;;
65463;SDS011;52063;45.110;9.870;2023-10-13T01:57:10;10.38;;;6.53;;
65463;SDS011;52063;45.110;9.870;2023-10-13T01:59:48;8.13;;;6.07;;
65463;SDS011;52063;45.110;9.870;2023-10-13T02:02:14;9.38;;;6.60;;
65463;SDS011;52063;45.110;9.870;2023-10-13T02:04:41;12.40;;;7.07;;
65463;SDS011;52063;45.110;9.870;2023-10-13T02:07:08;9.93;;;6.88;;
65463;SDS011;52063;45.110;9.870;2023-10-13T02:09:33;10.02;;;6.78;;
65463;SDS011;52063;45.110;9.870;2023-10-13T02:12:02;8.68;;;6.57;;
65463;SDS011;52063;45.110;9.870;2023-10-13T02:14:27;8.37;;;5.90;;
65463;SDS011;52063;45.110;9.870;2023-10-13T02:16:53;9.93;;;6.45;;
65463;SDS011;52063;45.110;9.870;2023-10-13T02:19:37;10.40;;;6.43;;
65463;SDS011;52063;45.110;9.870;2023-10-13T02:22:05;8.38;;;6.55;;
65463;SDS011;52063;45.110;9.870;2023-10-13T02:24:34;8.98;;;6.75;;
65463;SDS011;52063;45.110;9.870;2023-10-13T02:26:59;10.63;;;6.57;;
65463;SDS011;52063;45.110;9.870;2023-10-13T02:29:30;7.22;;;6.30;;
65463;SDS011;52063;45.110;9.870;2023-10-13T02:31:55;11.33;;;6.40;;
65463;SDS011;52063;45.110;9.870;2023-10-13T02:34:22;7.07;;;5.95;;
65463;SDS011;52063;45.110;9.870;2023-10-13T02:36:48;7.60;;;6.20;;
65463;SDS011;52063;45.110;9.870;2023-10-13T02:39:17;8.02;;;6.18;;
65463;SDS011;52063;45.110;9.870;2023-10-13T02:41:50;10.83;;;6.50;;
65463;SDS011;52063;45.110;9.870;2023-10-13T02:44:16;7.93;;;6.32;;
65463;SDS011;52063;45.110;9.870;2023-10-13T02:46:52;11.15;;;6.05;;
65463;SDS011;52063;45.110;9.870;2023-10-13T02:49:21;9.98;;;5.90;;
65463;SDS011;52063;45.110;9.870;2023-10-13T02:51:52;9.70;;;6.60;;
65463;SDS011;52063;45.110;9.870;2023-10-13T02:54:18;7.07;;;6.07;;
65463;SDS011;52063;45.110;9.870;2023-10-13T02:56:44;8.43;;;6.20;;
65463;SDS011;52063;45.110;9.870;2023-10-13T02:59:15;8.25;;;6.57;;
65463;SDS011;52063;45.110;9.870;2023-10-13T03:01:44;8.73;;;6.10;;
65463;SDS011;52063;45.110;9.870;2023-10-13T03:04:10;8.03;;;6.03;;
65463;SDS011;52063;45.110;9.870;2023-10-13T03:06:37;8.10;;;6.20;;
65463;SDS011;52063;45.110;9.870;2023-10-13T03:09:07;8.45;;;6.18;;
65463;SDS011;52063;45.110;9.870;2023-10-13T03:11:47;8.70;;;5.90;;
65463;SDS011;52063;45.110;9.870;2023-10-13T03:14:18;7.78;;;6.22;;
65463;SDS011;52063;45.110;9.870;2023-10-13T03:17:00;7.40;;;6.00;;
65463;SDS011;52063;45.110;9.870;2023-10-13T03:19:28;8.23;;;6.10;;
65463;SDS011;52063;45.110;9.870;2023-10-13T03:22:01;6.78;;;5.88;;
65463;SDS011;52063;45.110;9.870;2023-10-13T03:24:39;10.00;;;6.20;;
65463;SDS011;52063;45.110;9.870;2023-10-13T03:27:14;6.38;;;5.47;;
65463;SDS011;52063;45.110;9.870;2023-10-13T03:29:47;16.65;;;6.10;;
65463;SDS011;52063;45.110;9.870;2023-10-13T03:32:19;8.75;;;5.78;;
65463;SDS011;52063;45.110;9.870;2023-10-13T03:34:45;8.70;;;5.82;;
65463;SDS011;52063;45.110;9.870;2023-10-13T03:37:27;7.73;;;5.70;;
65463;SDS011;52063;45.110;9.870;2023-10-13T03:40:11;6.53;;;5.47;;
65463;SDS011;52063;45.110;9.870;2023-10-13T03:42:47;6.50;;;5.45;;
65463;SDS011;52063;45.110;9.870;2023-10-13T03:45:38;7.45;;;5.53;;
65463;SDS011;52063;45.110;9.870;2023-10-13T03:48:26;8.57;;;5.85;;
65463;SDS011;52063;45.110;9.870;2023-10-13T03:50:51;6.53;;;5.70;;
65463;SDS011;52063;45.110;9.870;2023-10-13T03:53:38;6.90;;;5.65;;
65463;SDS011;52063;45.110;9.870;2023-10-13T03:56:20;6.03;;;5.43;;
65463;SDS011;52063;45.110;9.870;2023-10-13T03:58:53;9.38;;;5.97;;
65463;SDS011;52063;45.110;9.870;2023-10-13T04:01:20;8.35;;;5.45;;
65463;SDS011;52063;45.110;9.870;2023-10-13T04:03:57;8.10;;;5.30;;
65463;SDS011;52063;45.110;9.870;2023-10-13T04:06:30;6.35;;;5.35;;
65463;SDS011;52063;45.110;9.870;2023-10-13T04:11:58;8.63;;;5.80;;
65463;SDS011;52063;45.110;9.870;2023-10-13T04:14:37;6.70;;;5.60;;
65463;SDS011;52063;45.110;9.870;2023-10-13T04:17:22;6.00;;;4.97;;
65463;SDS011;52063;45.110;9.870;2023-10-13T04:19:51;8.57;;;5.38;;
65463;SDS011;52063;45.110;9.870;2023-10-13T04:25:16;5.95;;;5.45;;
65463;SDS011;52063;45.110;9.870;2023-10-13T04:28:04;5.75;;;5.22;;
65463;SDS011;52063;45.110;9.870;2023-10-13T04:33:20;7.97;;;5.35;;
65463;SDS011;52063;45.110;9.870;2023-10-13T04:36:18;11.15;;;5.90;;
65463;SDS011;52063;45.110;9.870;2023-10-13T04:38:59;6.22;;;5.35;;
65463;SDS011;52063;45.110;9.870;2023-10-13T04:44:02;5.73;;;5.07;;
65463;SDS011;52063;45.110;9.870;2023-10-13T04:46:30;6.00;;;5.05;;
65463;SDS011;52063;45.110;9.870;2023-10-13T04:49:11;8.27;;;5.00;;
65463;SDS011;52063;45.110;9.870;2023-10-13T04:51:56;6.53;;;5.03;;
65463;SDS011;52063;45.110;9.870;2023-10-13T04:54:26;6.32;;;4.95;;
65463;SDS011;52063;45.110;9.870;2023-10-13T04:57:22;6.60;;;4.90;;
65463;SDS011;52063;45.110;9.870;2023-10-13T04:59:58;6.35;;;5.10;;
65463;SDS011;52063;45.110;9.870;2023-10-13T05:02:41;7.05;;;4.90;;
65463;SDS011;52063;45.110;9.870;2023-10-13T05:05:12;5.95;;;4.38;;
65463;SDS011;52063;45.110;9.870;2023-10-13T05:07:38;5.68;;;4.47;;
65463;SDS011;52063;45.110;9.870;2023-10-13T05:10:23;6.80;;;4.67;;
65463;SDS011;52063;45.110;9.870;2023-10-13T05:13:14;6.32;;;4.82;;
65463;SDS011;52063;45.110;9.870;2023-10-13T05:15:58;5.90;;;4.60;;
65463;SDS011;52063;45.110;9.870;2023-10-13T05:18:59;5.30;;;4.38;;
65463;SDS011;52063;45.110;9.870;2023-10-13T05:21:43;7.03;;;4.65;;
65463;SDS011;52063;45.110;9.870;2023-10-13T05:24:28;5.50;;;4.45;;
65463;SDS011;52063;45.110;9.870;2023-10-13T05:27:13;7.05;;;4.45;;
65463;SDS011;52063;45.110;9.870;2023-10-13T05:29:57;5.50;;;4.43;;
65463;SDS011;52063;45.110;9.870;2023-10-13T05:32:41;6.32;;;4.63;;
65463;SDS011;52063;45.110;9.870;2023-10-13T05:35:25;6.38;;;4.70;;
65463;SDS011;52063;45.110;9.870;2023-10-13T05:38:09;5.43;;;4.15;;
65463;SDS011;52063;45.110;9.870;2023-10-13T05:43:40;5.93;;;4.57;;
65463;SDS011;52063;45.110;9.870;2023-10-13T05:46:24;8.40;;;4.20;;
65463;SDS011;52063;45.110;9.870;2023-10-13T05:48:50;7.20;;;4.80;;
65463;SDS011;52063;45.110;9.870;2023-10-13T05:54:00;8.60;;;4.20;;
65463;SDS011;52063;45.110;9.870;2023-10-13T05:56:48;7.53;;;4.20;;
65463;SDS011;52063;45.110;9.870;2023-10-13T05:59:34;6.13;;;4.25;;
65463;SDS011;52063;45.110;9.870;2023-10-13T06:02:19;8.85;;;4.68;;
65463;SDS011;52063;45.110;9.870;2023-10-13T06:05:04;5.68;;;4.30;;
65463;SDS011;52063;45.110;9.870;2023-10-13T06:07:49;4.40;;;3.90;;
65463;SDS011;52063;45.110;9.870;2023-10-13T06:10:33;6.72;;;4.35;;
65463;SDS011;52063;45.110;9.870;2023-10-13T06:13:18;7.30;;;4.70;;
65463;SDS011;52063;45.110;9.870;2023-10-13T06:16:08;7.35;;;4.13;;
65463;SDS011;52063;45.110;9.870;2023-10-13T06:18:54;6.50;;;4.18;;
65463;SDS011;52063;45.110;9.870;2023-10-13T06:21:37;10.33;;;4.73;;
65463;SDS011;52063;45.110;9.870;2023-10-13T06:24:22;10.13;;;4.50;;
65463;SDS011;52063;45.110;9.870;2023-10-13T06:27:06;10.70;;;4.88;;
65463;SDS011;52063;45.110;9.870;2023-10-13T06:29:50;9.68;;;4.43;;
65463;SDS011;52063;45.110;9.870;2023-10-13T06:32:15;8.70;;;4.30;;
65463;SDS011;52063;45.110;9.870;2023-10-13T06:34:44;4.82;;;3.90;;
65463;SDS011;52063;45.110;9.870;2023-10-13T06:37:11;11.55;;;4.53;;
65463;SDS011;52063;45.110;9.870;2023-10-13T06:39:56;6.20;;;4.13;;
65463;SDS011;52063;45.110;9.870;2023-10-13T06:42:23;5.00;;;4.10;;
65463;SDS011;52063;45.110;9.870;2023-10-13T06:44:52;7.35;;;4.78;;
65463;SDS011;52063;45.110;9.870;2023-10-13T06:47:19;7.60;;;4.50;;
65463;SDS011;52063;45.110;9.870;2023-10-13T06:49:45;10.20;;;5.30;;
65463;SDS011;52063;45.110;9.870;2023-10-13T06:52:14;8.00;;;4.83;;
65463;SDS011;52063;45.110;9.870;2023-10-13T06:54:41;9.85;;;5.80;;
65463;SDS011;52063;45.110;9.870;2023-10-13T06:57:08;10.25;;;5.30;;
65463;SDS011;52063;45.110;9.870;2023-10-13T06:59:42;16.45;;;6.43;;
65463;SDS011;52063;45.110;9.870;2023-10-13T07:02:08;9.82;;;6.15;;
65463;SDS011;52063;45.110;9.870;2023-10-13T07:04:38;12.20;;;6.60;;
65463;SDS011;52063;45.110;9.870;2023-10-13T07:07:04;10.95;;;7.85;;
65463;SDS011;52063;45.110;9.870;2023-10-13T07:09:35;16.65;;;8.57;;
65463;SDS011;52063;45.110;9.870;2023-10-13T07:12:01;20.17;;;9.15;;
65463;SDS011;52063;45.110;9.870;2023-10-13T07:14:29;20.73;;;7.90;;
65463;SDS011;52063;45.110;9.870;2023-10-13T07:17:01;19.02;;;8.55;;
65463;SDS011;52063;45.110;9.870;2023-10-13T07:19:30;17.73;;;9.43;;
65463;SDS011;52063;45.110;9.870;2023-10-13T07:24:42;22.75;;;13.13;;
65463;SDS011;52063;45.110;9.870;2023-10-13T07:27:07;27.70;;;15.23;;
65463;SDS011;52063;45.110;9.870;2023-10-13T07:29:33;30.00;;;15.80;;
65463;SDS011;52063;45.110;9.870;2023-10-13T07:32:01;31.40;;;16.45;;
65463;SDS011;52063;45.110;9.870;2023-10-13T07:34:28;30.98;;;17.38;;
65463;SDS011;52063;45.110;9.870;2023-10-13T07:36:57;32.30;;;17.00;;
65463;SDS011;52063;45.110;9.870;2023-10-13T07:39:30;28.13;;;15.10;;
65463;SDS011;52063;45.110;9.870;2023-10-13T07:41:59;26.95;;;14.82;;
65463;SDS011;52063;45.110;9.870;2023-10-13T07:44:40;30.17;;;15.48;;
65463;SDS011;52063;45.110;9.870;2023-10-13T07:47:11;27.70;;;15.05;;
65463;SDS011;52063;45.110;9.870;2023-10-13T07:49:39;27.60;;;13.52;;
65463;SDS011;52063;45.110;9.870;2023-10-13T07:52:05;27.87;;;14.80;;
65463;SDS011;52063;45.110;9.870;2023-10-13T07:54:51;24.45;;;13.93;;
65463;SDS011;52063;45.110;9.870;2023-10-13T07:57:36;27.50;;;13.57;;
65463;SDS011;52063;45.110;9.870;2023-10-13T08:00:18;21.70;;;12.90;;
65463;SDS011;52063;45.110;9.870;2023-10-13T08:03:03;22.50;;;12.98;;
65463;SDS011;52063;45.110;9.870;2023-10-13T08:05:41;21.33;;;12.30;;
65463;SDS011;52063;45.110;9.870;2023-10-13T08:08:28;26.25;;;12.10;;
65463;SDS011;52063;45.110;9.870;2023-10-13T08:11:06;20.70;;;12.35;;
65463;SDS011;52063;45.110;9.870;2023-10-13T08:13:51;18.55;;;11.68;;
65463;SDS011;52063;45.110;9.870;2023-10-13T08:16:37;21.98;;;11.50;;
65463;SDS011;52063;45.110;9.870;2023-10-13T08:19:19;19.77;;;11.20;;
65463;SDS011;52063;45.110;9.870;2023-10-13T08:22:05;18.25;;;10.95;;
65463;SDS011;52063;45.110;9.870;2023-10-13T08:24:43;17.55;;;10.30;;
65463;SDS011;52063;45.110;9.870;2023-10-13T08:27:09;18.13;;;10.95;;
65463;SDS011;52063;45.110;9.870;2023-10-13T08:29:41;18.25;;;10.68;;
65463;SDS011;52063;45.110;9.870;2023-10-13T08:32:25;14.57;;;10.20;;
65463;SDS011;52063;45.110;9.870;2023-10-13T08:34:55;17.92;;;9.98;;
65463;SDS011;52063;45.110;9.870;2023-10-13T08:37:24;13.80;;;9.95;;
65463;SDS011;52063;45.110;9.870;2023-10-13T08:39:51;14.18;;;8.85;;
65463;SDS011;52063;45.110;9.870;2023-10-13T08:42:30;14.07;;;9.05;;
65463;SDS011;52063;45.110;9.870;2023-10-13T08:45:19;17.13;;;9.17;;
65463;SDS011;52063;45.110;9.870;2023-10-13T08:47:54;15.88;;;8.80;;
65463;SDS011;52063;45.110;9.870;2023-10-13T08:50:37;14.00;;;8.38;;
65463;SDS011;52063;45.110;9.870;2023-10-13T08:53:16;13.18;;;8.30;;
65463;SDS011;52063;45.110;9.870;2023-10-13T08:56:00;12.13;;;8.32;;
65463;SDS011;52063;45.110;9.870;2023-10-13T08:58:39;16.47;;;8.50;;
65463;SDS011;52063;45.110;9.870;2023-10-13T09:04:07;11.88;;;7.50;;
65463;SDS011;52063;45.110;9.870;2023-10-13T09:06:56;16.48;;;7.78;;
65463;SDS011;52063;45.110;9.870;2023-10-13T09:09:24;11.27;;;8.05;;
65463;SDS011;52063;45.110;9.870;2023-10-13T09:12:00;14.63;;;9.83;;
65463;SDS011;52063;45.110;9.870;2023-10-13T09:14:38;16.67;;;10.35;;
65463;SDS011;52063;45.110;9.870;2023-10-13T09:17:10;16.08;;;10.75;;
65463;SDS011;52063;45.110;9.870;2023-10-13T09:19:44;15.80;;;9.27;;
65463;SDS011;52063;45.110;9.870;2023-10-13T09:24:59;12.40;;;9.00;;
65463;SDS011;52063;45.110;9.870;2023-10-13T09:27:27;17.13;;;8.90;;
65463;SDS011;52063;45.110;9.870;2023-10-13T09:29:59;13.50;;;8.60;;
65463;SDS011;52063;45.110;9.870;2023-10-13T09:32:46;13.27;;;8.40;;
65463;SDS011;52063;45.110;9.870;2023-10-13T09:35:34;13.63;;;8.50;;
65463;SDS011;52063;45.110;9.870;2023-10-13T09:38:02;16.33;;;8.60;;
65463;SDS011;52063;45.110;9.870;2023-10-13T09:40:29;13.15;;;8.07;;
65463;SDS011;52063;45.110;9.870;2023-10-13T09:42:58;14.85;;;8.27;;
65463;SDS011;52063;45.110;9.870;2023-10-13T09:45:29;10.75;;;7.60;;
65463;SDS011;52063;45.110;9.870;2023-10-13T09:48:02;16.33;;;7.97;;
65463;SDS011;52063;45.110;9.870;2023-10-13T09:50:35;12.97;;;7.60;;
65463;SDS011;52063;45.110;9.870;2023-10-13T09:53:04;11.77;;;7.20;;
65463;SDS011;52063;45.110;9.870;2023-10-13T09:55:35;16.70;;;7.90;;
65463;SDS011;52063;45.110;9.870;2023-10-13T09:58:07;12.98;;;7.53;;
65463;SDS011;52063;45.110;9.870;2023-10-13T10:00:46;14.82;;;6.93;;
65463;SDS011;52063;45.110;9.870;2023-10-13T10:03:15;15.80;;;6.80;;
65463;SDS011;52063;45.110;9.870;2023-10-13T10:05:54;11.85;;;6.60;;
65463;SDS011;52063;45.110;9.870;2023-10-13T10:08:28;15.43;;;6.97;;
65463;SDS011;52063;45.110;9.870;2023-10-13T10:19:02;12.43;;;6.85;;
65463;SDS011;52063;45.110;9.870;2023-10-13T10:21:34;12.38;;;7.22;;
65463;SDS011;52063;45.110;9.870;2023-10-13T10:24:13;12.80;;;7.00;;
65463;SDS011;52063;45.110;9.870;2023-10-13T10:26:52;11.23;;;6.93;;
65463;SDS011;52063;45.110;9.870;2023-10-13T10:29:18;13.18;;;7.30;;
65463;SDS011;52063;45.110;9.870;2023-10-13T10:31:43;9.20;;;6.53;;
65463;SDS011;52063;45.110;9.870;2023-10-13T10:34:17;13.68;;;6.35;;
65463;SDS011;52063;45.110;9.870;2023-10-13T10:36:47;8.32;;;6.07;;
65463;SDS011;52063;45.110;9.870;2023-10-13T10:39:13;12.30;;;6.25;;
65463;SDS011;52063;45.110;9.870;2023-10-13T10:41:40;10.20;;;5.87;;
65463;SDS011;52063;45.110;9.870;2023-10-13T10:44:12;16.40;;;6.45;;
65463;SDS011;52063;45.110;9.870;2023-10-13T10:46:41;9.80;;;6.22;;
65463;SDS011;52063;45.110;9.870;2023-10-13T10:49:07;9.80;;;6.18;;
65463;SDS011;52063;45.110;9.870;2023-10-13T10:51:33;9.60;;;6.22;;
65463;SDS011;52063;45.110;9.870;2023-10-13T10:54:17;8.97;;;5.90;;
65463;SDS011;52063;45.110;9.870;2023-10-13T10:56:43;8.27;;;5.63;;
65463;SDS011;52063;45.110;9.870;2023-10-13T10:59:09;12.52;;;5.68;;
65463;SDS011;52063;45.110;9.870;2023-10-13T11:01:44;7.33;;;5.80;;
65463;SDS011;52063;45.110;9.870;2023-10-13T11:04:16;10.05;;;5.50;;
65463;SDS011;52063;45.110;9.870;2023-10-13T11:06:52;10.75;;;5.63;;
65463;SDS011;52063;45.110;9.870;2023-10-13T11:09:31;15.00;;;6.40;;
65463;SDS011;52063;45.110;9.870;2023-10-13T11:12:08;11.50;;;5.85;;
65463;SDS011;52063;45.110;9.870;2023-10-13T11:14:40;8.07;;;5.80;;
65463;SDS011;52063;45.110;9.870;2023-10-13T11:17:17;11.95;;;5.40;;
65463;SDS011;52063;45.110;9.870;2023-10-13T11:19:49;11.75;;;5.90;;
65463;SDS011;52063;45.110;9.870;2023-10-13T11:22:18;10.03;;;6.30;;
65463;SDS011;52063;45.110;9.870;2023-10-13T11:25:01;10.18;;;5.82;;
65463;SDS011;52063;45.110;9.870;2023-10-13T11:27:36;10.63;;;5.75;;
65463;SDS011;52063;45.110;9.870;2023-10-13T11:30:14;12.55;;;5.78;;
65463;SDS011;52063;45.110;9.870;2023-10-13T11:33:06;9.85;;;6.05;;
65463;SDS011;52063;45.110;9.870;2023-10-13T11:35:36;8.73;;;5.57;;
65463;SDS011;52063;45.110;9.870;2023-10-13T11:38:34;9.48;;;6.00;;
65463;SDS011;52063;45.110;9.870;2023-10-13T11:41:05;9.13;;;5.63;;
65463;SDS011;52063;45.110;9.870;2023-10-13T11:43:31;11.17;;;6.73;;
65463;SDS011;52063;45.110;9.870;2023-10-13T11:46:15;12.18;;;7.00;;
65463;SDS011;52063;45.110;9.870;2023-10-13T11:48:42;13.07;;;6.05;;
65463;SDS011;52063;45.110;9.870;2023-10-13T11:51:10;9.02;;;6.22;;
65463;SDS011;52063;45.110;9.870;2023-10-13T11:53:42;12.77;;;6.10;;
65463;SDS011;52063;45.110;9.870;2023-10-13T11:56:09;11.68;;;6.85;;
65463;SDS011;52063;45.110;9.870;2023-10-13T11:58:38;13.02;;;6.60;;
65463;SDS011;52063;45.110;9.870;2023-10-13T12:01:05;13.47;;;6.90;;
65463;SDS011;52063;45.110;9.870;2023-10-13T12:06:24;8.68;;;6.30;;
65463;SDS011;52063;45.110;9.870;2023-10-13T12:09:07;9.77;;;6.60;;
65463;SDS011;52063;45.110;9.870;2023-10-13T12:11:59;11.65;;;6.45;;
65463;SDS011;52063;45.110;9.870;2023-10-13T12:14:26;12.63;;;5.97;;
65463;SDS011;52063;45.110;9.870;2023-10-13T12:17:05;9.95;;;5.68;;
65463;SDS011;52063;45.110;9.870;2023-10-13T12:19:35;8.95;;;6.03;;
65463;SDS011;52063;45.110;9.870;2023-10-13T12:22:01;12.48;;;6.10;;
65463;SDS011;52063;45.110;9.870;2023-10-13T12:24:32;12.85;;;5.95;;
65463;SDS011;52063;45.110;9.870;2023-10-13T12:27:04;10.47;;;5.60;;
65463;SDS011;52063;45.110;9.870;2023-10-13T12:29:47;10.07;;;5.88;;
65463;SDS011;52063;45.110;9.870;2023-10-13T12:32:13;9.25;;;5.55;;
65463;SDS011;52063;45.110;9.870;2023-10-13T12:34:40;7.18;;;5.85;;
65463;SDS011;52063;45.110;9.870;2023-10-13T12:37:31;11.60;;;5.82;;
65463;SDS011;52063;45.110;9.870;2023-10-13T12:40:12;7.77;;;5.23;;
65463;SDS011;52063;45.110;9.870;2023-10-13T12:42:56;9.73;;;5.35;;
65463;SDS011;52063;45.110;9.870;2023-10-13T12:45:41;7.95;;;5.07;;
65463;SDS011;52063;45.110;9.870;2023-10-13T12:48:26;9.73;;;5.25;;
65463;SDS011;52063;45.110;9.870;2023-10-13T12:51:10;11.95;;;5.47;;
65463;SDS011;52063;45.110;9.870;2023-10-13T12:53:54;7.57;;;5.00;;
65463;SDS011;52063;45.110;9.870;2023-10-13T12:56:21;10.70;;;5.00;;
65463;SDS011;52063;45.110;9.870;2023-10-13T12:58:53;9.85;;;5.30;;
65463;SDS011;52063;45.110;9.870;2023-10-13T13:01:23;9.80;;;5.30;;
65463;SDS011;52063;45.110;9.870;2023-10-13T13:03:58;7.35;;;5.00;;
65463;SDS011;52063;45.110;9.870;2023-10-13T13:06:24;8.13;;;5.33;;
65463;SDS011;52063;45.110;9.870;2023-10-13T13:08:51;14.60;;;5.78;;
65463;SDS011;52063;45.110;9.870;2023-10-13T13:11:17;9.63;;;5.45;;
65463;SDS011;52063;45.110;9.870;2023-10-13T13:13:43;12.20;;;4.87;;
65463;SDS011;52063;45.110;9.870;2023-10-13T13:16:11;8.77;;;5.13;;
65463;SDS011;52063;45.110;9.870;2023-10-13T13:18:40;9.27;;;4.82;;
65463;SDS011;52063;45.110;9.870;2023-10-13T13:21:05;11.87;;;5.57;;
65463;SDS011;52063;45.110;9.870;2023-10-13T13:23:31;13.13;;;5.40;;
65463;SDS011;52063;45.110;9.870;2023-10-13T13:26:00;9.38;;;4.65;;
65463;SDS011;52063;45.110;9.870;2023-10-13T13:28:25;9.13;;;5.43;;
65463;SDS011;52063;45.110;9.870;2023-10-13T13:30:54;8.17;;;4.53;;
65463;SDS011;52063;45.110;9.870;2023-10-13T13:33:20;7.47;;;4.72;;
65463;SDS011;52063;45.110;9.870;2023-10-13T13:35:53;11.55;;;4.88;;
65463;SDS011;52063;45.110;9.870;2023-10-13T13:38:20;11.85;;;4.82;;
65463;SDS011;52063;45.110;9.870;2023-10-13T13:40:52;8.75;;;4.82;;
65463;SDS011;52063;45.110;9.870;2023-10-13T13:43:19;11.37;;;5.17;;
65463;SDS011;52063;45.110;9.870;2023-10-13T13:46:06;9.27;;;4.78;;
65463;SDS011;52063;45.110;9.870;2023-10-13T13:48:36;9.02;;;4.97;;
65463;SDS011;52063;45.110;9.870;2023-10-13T13:51:05;7.30;;;4.88;;
65463;SDS011;52063;45.110;9.870;2023-10-13T13:53:38;8.57;;;4.60;;
65463;SDS011;52063;45.110;9.870;2023-10-13T13:56:07;11.23;;;4.87;;
65463;SDS011;52063;45.110;9.870;2023-10-13T13:58:33;8.38;;;4.78;;
65463;SDS011;52063;45.110;9.870;2023-10-13T14:00:59;6.20;;;4.60;;
65463;SDS011;52063;45.110;9.870;2023-10-13T14:03:25;9.52;;;4.70;;
65463;SDS011;52063;45.110;9.870;2023-10-13T14:06:00;9.90;;;4.68;;
65463;SDS011;52063;45.110;9.870;2023-10-13T14:08:26;9.05;;;4.97;;
65463;SDS011;52063;45.110;9.870;2023-10-13T14:10:53;13.13;;;5.13;;
65463;SDS011;52063;45.110;9.870;2023-10-13T14:13:37;10.18;;;5.35;;
65463;SDS011;52063;45.110;9.870;2023-10-13T14:16:17;8.30;;;4.72;;
65463;SDS011;52063;45.110;9.870;2023-10-13T14:21:10;10.35;;;4.80;;
65463;SDS011;52063;45.110;9.870;2023-10-13T14:23:35;7.97;;;4.97;;
65463;SDS011;52063;45.110;9.870;2023-10-13T14:26:01;9.00;;;4.93;;
65463;SDS011;52063;45.110;9.870;2023-10-13T14:28:26;9.37;;;5.37;;
65463;SDS011;52063;45.110;9.870;2023-10-13T14:31:04;10.98;;;4.97;;
65463;SDS011;52063;45.110;9.870;2023-10-13T14:33:35;10.65;;;4.88;;
65463;SDS011;52063;45.110;9.870;2023-10-13T14:36:02;7.13;;;5.00;;
65463;SDS011;52063;45.110;9.870;2023-10-13T14:38:30;9.50;;;5.20;;
65463;SDS011;52063;45.110;9.870;2023-10-13T14:40:59;10.15;;;4.57;;
65463;SDS011;52063;45.110;9.870;2023-10-13T14:43:24;7.57;;;4.70;;
65463;SDS011;52063;45.110;9.870;2023-10-13T14:45:53;7.55;;;5.13;;
65463;SDS011;52063;45.110;9.870;2023-10-13T14:48:18;11.27;;;5.27;;
65463;SDS011;52063;45.110;9.870;2023-10-13T14:50:44;10.93;;;4.88;;
65463;SDS011;52063;45.110;9.870;2023-10-13T14:53:10;7.93;;;4.63;;
65463;SDS011;52063;45.110;9.870;2023-10-13T14:55:36;6.88;;;4.65;;
65463;SDS011;52063;45.110;9.870;2023-10-13T14:58:04;8.80;;;4.95;;
65463;SDS011;52063;45.110;9.870;2023-10-13T15:00:33;10.07;;;5.18;;
65463;SDS011;52063;45.110;9.870;2023-10-13T15:02:59;10.27;;;5.03;;
65463;SDS011;52063;45.110;9.870;2023-10-13T15:05:31;8.98;;;4.47;;
65463;SDS011;52063;45.110;9.870;2023-10-13T15:07:58;9.93;;;5.05;;
65463;SDS011;52063;45.110;9.870;2023-10-13T15:10:25;8.43;;;4.45;;
65463;SDS011;52063;45.110;9.870;2023-10-13T15:12:50;11.48;;;4.65;;
65463;SDS011;52063;45.110;9.870;2023-10-13T15:15:16;9.40;;;4.70;;
65463;SDS011;52063;45.110;9.870;2023-10-13T15:17:44;9.50;;;5.25;;
65463;SDS011;52063;45.110;9.870;2023-10-13T15:20:10;7.78;;;4.47;;
65463;SDS011;52063;45.110;9.870;2023-10-13T15:22:44;8.13;;;4.45;;
65463;SDS011;52063;45.110;9.870;2023-10-13T15:25:12;8.37;;;4.60;;
65463;SDS011;52063;45.110;9.870;2023-10-13T15:27:56;10.00;;;4.88;;
65463;SDS011;52063;45.110;9.870;2023-10-13T15:30:28;9.00;;;5.03;;
65463;SDS011;52063;45.110;9.870;2023-10-13T15:33:11;7.57;;;5.00;;
65463;SDS011;52063;45.110;9.870;2023-10-13T15:35:40;9.43;;;4.75;;
65463;SDS011;52063;45.110;9.870;2023-10-13T15:38:10;6.27;;;4.67;;
65463;SDS011;52063;45.110;9.870;2023-10-13T15:40:42;11.70;;;4.68;;
65463;SDS011;52063;45.110;9.870;2023-10-13T15:43:09;8.80;;;5.05;;
65463;SDS011;52063;45.110;9.870;2023-10-13T15:45:35;11.90;;;4.70;;
65463;SDS011;52063;45.110;9.870;2023-10-13T15:48:10;10.27;;;4.93;;
65463;SDS011;52063;45.110;9.870;2023-10-13T15:50:40;8.87;;;5.20;;
65463;SDS011;52063;45.110;9.870;2023-10-13T15:53:06;10.60;;;5.40;;
65463;SDS011;52063;45.110;9.870;2023-10-13T15:55:35;12.13;;;5.20;;